createdAt,value
2017-12-25T00:01:03.976Z,11.20
2017-12-25T00:03:34.438Z,16.30
2017-12-25T00:06:04.822Z,12.00
2017-12-25T00:08:35.216Z,11.50
2017-12-25T00:11:05.470Z,11.20
2017-12-25T00:13:36.121Z,11.10
2017-12-25T00:16:07.136Z,13.10
2017-12-25T00:18:37.361Z,12.47
2017-12-25T00:21:07.597Z,11.37
2017-12-25T00:23:38.181Z,12.03
2017-12-25T00:26:08.400Z,11.53
2017-12-25T00:28:39.539Z,7.77
2017-12-25T00:31:09.729Z,9.57
2017-12-25T00:33:39.983Z,10.37
2017-12-25T00:36:10.206Z,7.80
2017-12-25T00:38:40.477Z,7.93
2017-12-25T00:41:10.714Z,13.10
2017-12-25T00:43:41.864Z,11.07
2017-12-25T00:46:12.983Z,9.07
2017-12-25T00:48:43.159Z,8.43
2017-12-25T00:51:13.416Z,5.87
2017-12-25T00:53:43.784Z,8.23
2017-12-25T00:56:14.002Z,6.00
2017-12-25T00:58:44.241Z,7.30
2017-12-25T01:01:14.464Z,6.53
2017-12-25T01:04:15.246Z,7.70
2017-12-25T01:06:45.498Z,9.60
2017-12-25T01:09:15.713Z,7.83
2017-12-25T01:11:46.160Z,8.50
2017-12-25T01:14:16.437Z,8.33
2017-12-25T01:16:46.627Z,9.07
2017-12-25T01:19:17.046Z,10.53
2017-12-25T01:21:47.244Z,9.07
2017-12-25T01:24:17.616Z,10.60
2017-12-25T01:26:47.841Z,10.43
2017-12-25T01:29:18.073Z,8.40
2017-12-25T01:31:48.785Z,12.40
2017-12-25T01:34:19.070Z,8.20
2017-12-25T01:36:49.511Z,9.00
2017-12-25T01:39:19.712Z,9.67
2017-12-25T01:41:50.277Z,11.50
2017-12-25T01:44:20.678Z,8.23
2017-12-25T01:46:59.703Z,8.97
2017-12-25T01:49:29.940Z,7.53
2017-12-25T01:52:00.857Z,8.63
2017-12-25T01:54:33.665Z,8.30
2017-12-25T01:57:09.909Z,9.53
2017-12-25T01:59:44.309Z,6.80
2017-12-25T02:02:15.556Z,10.60
2017-12-25T02:04:47.057Z,10.30
2017-12-25T02:08:27.560Z,8.90
2017-12-25T02:10:57.572Z,9.90
2017-12-25T02:13:27.868Z,9.97
2017-12-25T02:15:57.852Z,9.27
2017-12-25T02:18:28.061Z,7.53
2017-12-25T02:20:58.438Z,8.43
2017-12-25T02:23:28.800Z,15.23
2017-12-25T02:25:59.887Z,10.90
2017-12-25T02:28:30.417Z,10.53
2017-12-25T02:31:00.753Z,13.20
2017-12-25T02:33:31.918Z,12.40
2017-12-25T02:36:03.176Z,18.80
2017-12-25T02:38:34.134Z,10.83
2017-12-25T02:41:04.705Z,11.43
2017-12-25T02:43:34.916Z,11.53
2017-12-25T02:46:05.649Z,11.03
2017-12-25T02:48:36.885Z,12.47
2017-12-25T02:51:07.081Z,13.77
2017-12-25T02:53:37.451Z,12.17
2017-12-25T02:56:08.012Z,11.13
2017-12-25T02:58:38.954Z,9.77
2017-12-25T03:01:09.301Z,14.60
2017-12-25T03:03:39.501Z,12.57
2017-12-25T03:06:09.932Z,11.37
2017-12-25T03:08:40.495Z,10.17
2017-12-25T03:11:10.965Z,10.33
2017-12-25T03:13:42.049Z,9.33
2017-12-25T03:16:12.356Z,10.83
2017-12-25T03:18:43.379Z,10.20
2017-12-25T03:21:13.580Z,10.00
2017-12-25T03:23:43.760Z,11.23
2017-12-25T03:26:14.265Z,9.13
2017-12-25T03:28:44.508Z,7.90
2017-12-25T03:31:14.893Z,15.10
2017-12-25T03:33:45.981Z,12.30
2017-12-25T03:36:16.360Z,8.13
2017-12-25T03:38:46.685Z,10.17
2017-12-25T03:41:16.848Z,12.00
2017-12-25T03:43:47.065Z,10.30
2017-12-25T03:46:18.422Z,9.87
2017-12-25T03:48:48.598Z,12.43
2017-12-25T03:51:19.536Z,10.43
2017-12-25T03:53:49.868Z,10.63
2017-12-25T03:56:21.241Z,9.53
2017-12-25T03:58:51.408Z,10.67
2017-12-25T04:01:21.597Z,11.40
2017-12-25T04:03:51.948Z,10.47
2017-12-25T04:06:22.781Z,9.90
2017-12-25T04:08:53.789Z,9.00
2017-12-25T04:11:23.996Z,10.23
2017-12-25T04:13:54.331Z,10.37
2017-12-25T04:16:25.370Z,13.50
2017-12-25T04:18:56.127Z,9.30
2017-12-25T04:21:26.664Z,12.57
2017-12-25T04:23:56.797Z,10.50
2017-12-25T04:26:27.290Z,14.50
2017-12-25T04:28:58.241Z,11.83
2017-12-25T04:31:28.736Z,10.33
2017-12-25T04:33:58.888Z,8.03
2017-12-25T04:36:29.260Z,10.20
2017-12-25T04:39:00.209Z,9.17
2017-12-25T04:41:31.820Z,11.47
2017-12-25T04:44:02.246Z,13.50
2017-12-25T04:46:32.848Z,11.10
2017-12-25T04:49:03.534Z,11.23
2017-12-25T04:51:34.978Z,11.00
2017-12-25T04:54:05.241Z,13.87
2017-12-25T04:56:35.693Z,10.10
2017-12-25T04:59:05.965Z,14.80
2017-12-25T05:01:37.002Z,15.90
2017-12-25T05:04:08.177Z,14.07
2017-12-25T05:06:38.417Z,14.47
2017-12-25T05:09:09.130Z,12.93
2017-12-25T05:11:39.744Z,14.60
2017-12-25T05:14:09.945Z,12.90
2017-12-25T05:16:41.164Z,12.83
2017-12-25T05:19:11.342Z,17.70
2017-12-25T05:21:41.503Z,14.10
2017-12-25T05:24:11.941Z,12.03
2017-12-25T05:26:42.349Z,13.30
2017-12-25T05:29:12.793Z,16.50
2017-12-25T05:31:43.363Z,13.00
2017-12-25T05:34:13.819Z,17.67
2017-12-25T05:36:44.825Z,14.63
2017-12-25T05:39:15.222Z,18.10
2017-12-25T05:41:46.461Z,19.80
2017-12-25T05:44:19.196Z,17.47
2017-12-25T05:46:49.726Z,14.63
2017-12-25T05:49:19.992Z,17.37
2017-12-25T05:51:50.786Z,19.37
2017-12-25T05:54:20.980Z,16.87
2017-12-25T05:56:52.286Z,15.80
2017-12-25T05:59:22.744Z,19.10
2017-12-25T06:01:53.238Z,15.77
2017-12-25T06:04:23.707Z,20.57
2017-12-25T06:06:56.532Z,18.03
2017-12-25T06:09:26.673Z,17.03
2017-12-25T06:11:56.897Z,17.70
2017-12-25T06:14:27.464Z,17.43
2017-12-25T06:16:57.789Z,15.50
2017-12-25T06:19:28.277Z,17.03
2017-12-25T06:21:59.103Z,16.87
2017-12-25T06:24:29.698Z,13.40
2017-12-25T06:26:59.949Z,18.40
2017-12-25T06:29:30.853Z,18.33
2017-12-25T06:32:01.095Z,21.17
2017-12-25T06:34:31.645Z,18.60
2017-12-25T06:37:02.052Z,18.40
2017-12-25T06:39:32.452Z,20.60
2017-12-25T06:42:02.649Z,16.13
2017-12-25T06:44:33.982Z,18.53
2017-12-25T06:47:04.572Z,17.47
2017-12-25T06:49:35.245Z,16.83
2017-12-25T06:52:13.407Z,18.23
2017-12-25T06:54:44.855Z,18.10
2017-12-25T06:57:15.226Z,15.93
2017-12-25T06:59:47.380Z,21.80
2017-12-25T07:02:17.703Z,16.80
2017-12-25T07:04:48.160Z,14.23
2017-12-25T07:07:19.113Z,14.73
2017-12-25T07:09:49.663Z,19.47
2017-12-25T07:12:19.853Z,17.43
2017-12-25T07:14:51.153Z,12.07
2017-12-25T07:17:22.376Z,15.90
2017-12-25T07:19:52.828Z,14.00
2017-12-25T07:22:23.060Z,12.77
2017-12-25T07:24:53.774Z,13.80
2017-12-25T07:27:24.097Z,10.67
2017-12-25T07:29:54.649Z,12.07
2017-12-25T07:32:25.520Z,12.00
2017-12-25T07:34:55.817Z,13.50
2017-12-25T07:37:26.414Z,12.30
2017-12-25T07:39:56.921Z,14.70
2017-12-25T07:42:27.186Z,12.37
2017-12-25T07:44:58.433Z,12.93
2017-12-25T07:47:28.677Z,13.23
2017-12-25T07:49:59.765Z,15.47
2017-12-25T07:52:30.001Z,14.07
2017-12-25T07:55:00.696Z,11.60
2017-12-25T07:57:31.049Z,14.40
2017-12-25T08:02:32.417Z,13.40
2017-12-25T08:05:02.846Z,8.60
2017-12-25T08:07:33.073Z,12.70
2017-12-25T08:10:03.534Z,9.20
2017-12-25T08:12:33.718Z,9.13
2017-12-25T08:15:03.962Z,7.27
2017-12-25T08:17:34.346Z,10.63
2017-12-25T08:20:04.616Z,8.10
2017-12-25T08:22:34.768Z,9.57
2017-12-25T08:25:05.305Z,9.73
2017-12-25T08:27:36.483Z,9.27
2017-12-25T08:30:07.004Z,7.80
2017-12-25T08:32:37.305Z,12.03
2017-12-25T08:35:07.762Z,10.40
2017-12-25T08:37:38.084Z,13.10
2017-12-25T08:40:08.753Z,13.63
2017-12-25T08:42:39.760Z,11.67
2017-12-25T08:45:10.229Z,12.67
2017-12-25T08:47:40.563Z,18.83
2017-12-25T08:50:11.638Z,20.13
2017-12-25T08:52:42.770Z,15.20
2017-12-25T08:55:13.104Z,16.03
2017-12-25T08:57:43.452Z,13.60
2017-12-25T09:00:13.813Z,11.90
2017-12-25T09:02:44.214Z,13.80
2017-12-25T09:05:15.702Z,12.60
2017-12-25T09:07:45.957Z,10.80
2017-12-25T09:10:16.354Z,11.23
2017-12-25T09:12:46.736Z,8.50
2017-12-25T09:15:17.421Z,8.37
2017-12-25T09:17:47.738Z,8.47
2017-12-25T09:20:18.099Z,9.27
2017-12-25T09:22:48.746Z,7.40
2017-12-25T09:25:18.976Z,8.80
2017-12-25T09:27:49.986Z,8.60
2017-12-25T09:30:20.403Z,7.90
2017-12-25T09:32:50.790Z,7.17
2017-12-25T09:35:21.043Z,6.23
2017-12-25T09:37:58.368Z,7.33
2017-12-25T09:40:29.154Z,7.77
2017-12-25T09:42:59.863Z,6.03
2017-12-25T09:45:30.234Z,5.67
2017-12-25T09:48:00.749Z,8.30
2017-12-25T09:50:32.704Z,5.77
2017-12-25T09:53:03.243Z,9.57
2017-12-25T09:55:34.997Z,8.00
2017-12-25T09:58:06.464Z,6.77
2017-12-25T10:00:37.039Z,6.33
2017-12-25T10:03:08.381Z,6.90
2017-12-25T10:05:39.485Z,4.40
2017-12-25T10:08:09.944Z,5.73
2017-12-25T10:10:41.139Z,6.77
2017-12-25T10:13:12.905Z,7.63
2017-12-25T10:15:43.683Z,7.53
2017-12-25T10:18:15.101Z,8.30
2017-12-25T10:20:45.458Z,7.33
2017-12-25T10:23:16.832Z,5.67
2017-12-25T10:25:47.908Z,6.60
2017-12-25T10:28:20.459Z,5.97
2017-12-25T10:30:51.008Z,6.13
2017-12-25T10:33:21.526Z,4.50
2017-12-25T10:35:52.262Z,6.40
2017-12-25T10:38:22.856Z,3.63
2017-12-25T10:40:53.213Z,5.37
2017-12-25T10:43:23.749Z,5.10
2017-12-25T10:45:54.080Z,4.77
2017-12-25T10:48:25.393Z,3.80
2017-12-25T10:50:56.205Z,4.87
2017-12-25T10:53:27.558Z,4.70
2017-12-25T10:55:58.644Z,6.37
2017-12-25T10:58:29.169Z,4.70
2017-12-25T11:01:00.624Z,5.70
2017-12-25T11:03:31.099Z,5.30
2017-12-25T11:06:01.509Z,5.10
2017-12-25T11:08:31.861Z,5.93
2017-12-25T11:11:02.498Z,4.47
2017-12-25T11:13:32.991Z,8.00
2017-12-25T11:16:03.787Z,6.20
2017-12-25T11:18:35.890Z,5.70
2017-12-25T11:21:06.455Z,5.27
2017-12-25T11:23:36.757Z,8.00
2017-12-25T11:26:07.736Z,7.37
2017-12-25T11:28:38.095Z,7.20
2017-12-25T11:31:08.607Z,11.57
2017-12-25T11:33:39.121Z,8.73
2017-12-25T11:36:09.833Z,8.57
2017-12-25T11:38:40.293Z,8.10
2017-12-25T11:41:10.766Z,7.07
2017-12-25T11:43:41.976Z,7.60
2017-12-25T11:46:12.546Z,6.90
2017-12-25T11:48:42.919Z,5.40
2017-12-25T11:51:14.045Z,7.53
2017-12-25T11:53:45.601Z,7.27
2017-12-25T11:56:17.187Z,7.00
2017-12-25T11:58:52.452Z,8.07
2017-12-25T12:01:31.780Z,9.07
2017-12-25T12:04:03.550Z,7.07
2017-12-25T12:06:34.358Z,6.67
2017-12-25T12:09:05.284Z,8.60
2017-12-25T12:11:35.655Z,7.47
2017-12-25T12:14:06.981Z,9.03
2017-12-25T12:16:38.165Z,7.40
2017-12-25T12:19:09.187Z,7.97
2017-12-25T12:21:42.106Z,8.27
2017-12-25T12:25:15.897Z,8.00
2017-12-25T12:27:46.523Z,7.63
2017-12-25T12:30:17.053Z,7.13
2017-12-25T12:32:48.506Z,5.57
2017-12-25T12:35:19.241Z,6.00
2017-12-25T12:37:49.571Z,5.03
2017-12-25T12:40:20.184Z,5.77
2017-12-25T12:42:52.116Z,4.60
2017-12-25T12:45:22.381Z,3.73
2017-12-25T12:47:52.854Z,3.70
2017-12-25T12:50:23.249Z,3.83
2017-12-25T12:52:54.379Z,2.73
2017-12-25T12:55:25.162Z,2.83
2017-12-25T12:57:55.527Z,3.77
2017-12-25T13:00:26.166Z,2.43
2017-12-25T13:02:57.088Z,2.40
2017-12-25T13:05:27.923Z,4.10
2017-12-25T13:09:28.465Z,2.40
2017-12-25T13:11:59.703Z,2.97
2017-12-25T13:14:31.129Z,4.13
2017-12-25T13:17:01.726Z,3.90
2017-12-25T13:19:32.372Z,4.17
2017-12-25T13:22:02.978Z,3.00
2017-12-25T13:24:34.340Z,3.10
2017-12-25T13:27:04.939Z,4.00
2017-12-25T13:29:36.661Z,3.07
2017-12-25T13:32:08.077Z,4.80
2017-12-25T13:34:39.482Z,3.43
2017-12-25T13:37:10.932Z,3.60
2017-12-25T13:42:16.425Z,5.53
2017-12-25T13:44:47.268Z,4.07
2017-12-25T13:47:19.038Z,5.30
2017-12-25T13:49:49.727Z,8.90
2017-12-25T13:52:20.570Z,12.40
2017-12-25T13:54:51.441Z,9.17
2017-12-25T13:57:23.665Z,8.70
2017-12-25T13:59:54.304Z,7.87
2017-12-25T14:02:24.932Z,6.80
2017-12-25T14:04:55.459Z,7.80
2017-12-25T14:07:26.090Z,11.40
2017-12-25T14:09:56.467Z,14.60
2017-12-25T14:12:27.279Z,11.17
2017-12-25T14:14:57.676Z,12.07
2017-12-25T14:17:28.903Z,9.40
2017-12-25T14:20:01.123Z,13.43
2017-12-25T14:22:31.623Z,9.33
2017-12-25T14:25:02.153Z,12.23
2017-12-25T14:27:33.568Z,10.63
2017-12-25T14:30:04.304Z,10.13
2017-12-25T14:32:35.617Z,9.73
2017-12-25T14:35:06.867Z,9.00
2017-12-25T14:37:38.208Z,10.13
2017-12-25T14:40:08.974Z,16.20
2017-12-25T14:42:40.934Z,7.67
2017-12-25T14:45:12.052Z,9.53
2017-12-25T14:47:42.838Z,9.97
2017-12-25T14:50:13.614Z,10.50
2017-12-25T14:52:45.346Z,10.00
2017-12-25T14:55:15.829Z,8.10
2017-12-25T14:57:48.207Z,9.30
2017-12-25T15:00:19.280Z,7.40
2017-12-25T15:02:49.957Z,9.07
2017-12-25T15:05:20.607Z,10.00
2017-12-25T15:07:51.760Z,6.93
2017-12-25T15:10:23.248Z,8.40
2017-12-25T15:12:55.322Z,6.93
2017-12-25T15:15:26.936Z,8.00
2017-12-25T15:17:58.170Z,7.33
2017-12-25T15:21:58.077Z,9.37
2017-12-25T15:24:28.872Z,7.20
2017-12-25T15:26:59.257Z,13.00
2017-12-25T15:29:30.545Z,10.70
2017-12-25T15:32:01.066Z,9.90
2017-12-25T15:34:31.701Z,10.80
2017-12-25T15:37:02.067Z,8.83
2017-12-25T15:39:32.925Z,11.20
2017-12-25T15:42:04.268Z,12.20
2017-12-25T15:44:35.785Z,12.37
2017-12-25T15:47:06.841Z,11.47
2017-12-25T15:49:39.554Z,11.60
2017-12-25T15:52:10.322Z,11.10
2017-12-25T15:54:42.212Z,10.50
2017-12-25T15:57:14.355Z,8.57
2017-12-25T15:59:44.969Z,10.30
2017-12-25T16:02:15.501Z,8.90
2017-12-25T16:04:46.000Z,10.07
2017-12-25T16:07:16.598Z,10.30
2017-12-25T16:09:47.408Z,10.10
2017-12-25T16:12:17.947Z,11.57
2017-12-25T16:14:48.521Z,9.10
2017-12-25T16:17:19.732Z,7.27
2017-12-25T16:19:50.866Z,10.03
2017-12-25T16:22:21.962Z,5.70
2017-12-25T16:24:53.665Z,8.07
2017-12-25T16:27:25.150Z,6.80
2017-12-25T16:29:56.584Z,8.67
2017-12-25T16:32:27.165Z,10.43
2017-12-25T16:34:58.496Z,6.13
2017-12-25T16:37:29.514Z,8.10
2017-12-25T16:39:59.984Z,10.73
2017-12-25T16:42:32.120Z,10.90
2017-12-25T16:45:03.573Z,9.13
2017-12-25T16:47:34.124Z,9.90
2017-12-25T16:50:04.677Z,9.20
2017-12-25T16:52:35.419Z,11.30
2017-12-25T16:55:06.014Z,12.77
2017-12-25T16:57:37.435Z,16.90
2017-12-25T17:00:10.016Z,14.43
2017-12-25T17:02:40.726Z,13.33
2017-12-25T17:05:11.952Z,14.53
2017-12-25T17:07:42.736Z,12.80
2017-12-25T17:10:13.893Z,19.60
2017-12-25T17:12:45.025Z,12.53
2017-12-25T17:15:16.212Z,16.20
2017-12-25T17:17:46.742Z,13.33
2017-12-25T17:20:17.417Z,13.17
2017-12-25T17:22:48.417Z,12.63
2017-12-25T17:25:18.828Z,14.00
2017-12-25T17:27:49.577Z,11.83
2017-12-25T17:30:20.503Z,13.57
2017-12-25T17:32:51.279Z,13.20
2017-12-25T17:35:21.664Z,15.80
2017-12-25T17:37:51.968Z,11.90
2017-12-25T17:40:23.770Z,14.20
2017-12-25T17:42:55.853Z,14.87
2017-12-25T17:45:27.381Z,12.87
2017-12-25T17:47:59.344Z,13.83
2017-12-25T17:50:30.024Z,19.33
2017-12-25T17:53:01.556Z,12.83
2017-12-25T17:55:32.615Z,15.70
2017-12-25T17:58:03.013Z,14.73
2017-12-25T18:00:34.181Z,12.30
2017-12-25T18:03:05.578Z,12.10
2017-12-25T18:05:36.857Z,15.00
2017-12-25T18:08:09.092Z,16.53
2017-12-25T18:10:40.141Z,11.77
2017-12-25T18:13:11.243Z,10.70
2017-12-25T18:15:41.733Z,11.17
2017-12-25T18:18:12.718Z,8.77
2017-12-25T18:20:43.152Z,10.50
2017-12-25T18:23:13.463Z,9.80
2017-12-25T18:25:43.891Z,11.20
2017-12-25T18:28:14.313Z,11.80
2017-12-25T18:30:44.944Z,8.50
2017-12-25T18:33:15.304Z,9.20
2017-12-25T18:35:45.990Z,7.57
2017-12-25T18:38:16.362Z,7.13
2017-12-25T18:40:46.885Z,9.63
2017-12-25T18:43:17.314Z,11.50
2017-12-25T18:45:47.797Z,7.40
2017-12-25T18:48:18.394Z,7.23
2017-12-25T18:50:49.030Z,9.17
2017-12-25T18:53:19.369Z,10.13
2017-12-25T18:55:50.520Z,5.50
2017-12-25T18:58:21.640Z,7.07
2017-12-25T19:00:52.961Z,6.67
2017-12-25T19:03:23.729Z,7.07
2017-12-25T19:05:54.238Z,8.93
2017-12-25T19:08:25.144Z,7.90
2017-12-25T19:10:55.767Z,7.20
2017-12-25T19:13:26.762Z,6.20
2017-12-25T19:15:57.919Z,7.40
2017-12-25T19:18:28.611Z,7.20
2017-12-25T19:21:00.349Z,8.83
2017-12-25T19:23:31.554Z,8.63
2017-12-25T19:26:02.825Z,8.43
2017-12-25T19:28:33.450Z,8.63
2017-12-25T19:31:04.341Z,8.43
2017-12-25T19:33:35.746Z,8.93
2017-12-25T19:36:06.060Z,9.57
2017-12-25T19:38:36.626Z,11.47
2017-12-25T19:41:06.914Z,9.20
2017-12-25T19:43:37.680Z,11.67
2017-12-25T19:46:08.264Z,10.17
2017-12-25T19:48:39.514Z,8.80
2017-12-25T19:51:10.053Z,8.90
2017-12-25T19:53:40.754Z,7.50
2017-12-25T19:56:12.060Z,8.00
2017-12-25T19:58:42.856Z,8.03
2017-12-25T20:01:13.555Z,7.70
2017-12-25T20:03:44.578Z,9.30
2017-12-25T20:06:15.778Z,8.73
2017-12-25T20:08:46.300Z,7.53
2017-12-25T20:11:16.856Z,6.10
2017-12-25T20:13:47.264Z,8.53
2017-12-25T20:16:17.969Z,9.73
2017-12-25T20:18:48.737Z,7.27
2017-12-25T20:21:19.340Z,10.10
2017-12-25T20:23:49.571Z,7.00
2017-12-25T20:26:19.870Z,7.60
2017-12-25T20:28:51.379Z,7.40
2017-12-25T20:31:22.673Z,7.87
2017-12-25T20:33:52.946Z,9.00
2017-12-25T20:36:24.480Z,7.73
2017-12-25T20:38:55.057Z,10.07
2017-12-25T20:41:25.275Z,7.87
2017-12-25T20:45:24.993Z,9.70
2017-12-25T20:47:55.521Z,7.17
2017-12-25T20:50:26.258Z,6.43
2017-12-25T20:52:57.692Z,6.93
2017-12-25T20:55:28.350Z,7.90
2017-12-25T20:57:58.920Z,7.37
2017-12-25T21:00:29.750Z,7.00
2017-12-25T21:03:00.616Z,8.30
2017-12-25T21:05:31.189Z,8.57
2017-12-25T21:08:01.966Z,7.73
2017-12-25T21:10:32.611Z,6.47
2017-12-25T21:13:03.553Z,6.73
2017-12-25T21:15:35.219Z,6.60
2017-12-25T21:18:06.146Z,6.20
2017-12-25T21:20:36.892Z,7.50
2017-12-25T21:23:07.384Z,8.20
2017-12-25T21:25:37.728Z,6.40
2017-12-25T21:28:08.183Z,6.23
2017-12-25T21:30:38.543Z,5.60
2017-12-25T21:33:09.407Z,9.27
2017-12-25T21:35:39.802Z,6.07
2017-12-25T21:38:10.283Z,5.63
2017-12-25T21:40:40.786Z,4.73
2017-12-25T21:43:11.449Z,7.30
2017-12-25T21:45:42.347Z,3.90
2017-12-25T21:48:13.124Z,6.20
2017-12-25T21:50:43.505Z,5.47
2017-12-25T21:53:13.939Z,4.30
2017-12-25T21:55:44.419Z,4.83
2017-12-25T21:58:15.767Z,4.77
2017-12-25T22:00:47.078Z,5.30
2017-12-25T22:03:18.290Z,7.80
2017-12-25T22:05:49.245Z,6.23
2017-12-25T22:08:20.623Z,5.50
2017-12-25T22:10:52.409Z,4.20
2017-12-25T22:13:22.704Z,5.17
2017-12-25T22:15:53.220Z,5.90
2017-12-25T22:18:23.812Z,3.40
2017-12-25T22:20:54.331Z,4.60
2017-12-25T22:23:26.853Z,3.37
2017-12-25T22:25:58.196Z,4.63
2017-12-25T22:28:29.418Z,4.67
2017-12-25T22:31:00.435Z,4.93
2017-12-25T22:33:31.324Z,4.10
2017-12-25T22:36:01.735Z,7.13
2017-12-25T22:38:32.129Z,4.00
2017-12-25T22:41:04.450Z,3.57
2017-12-25T22:43:34.772Z,8.00
2017-12-25T22:46:05.176Z,5.60
2017-12-25T22:48:35.698Z,6.17
2017-12-25T22:51:06.067Z,5.03
2017-12-25T22:53:36.981Z,5.20
2017-12-25T22:56:07.402Z,6.17
2017-12-25T22:58:37.687Z,5.53
2017-12-25T23:01:09.453Z,7.10
2017-12-25T23:03:39.873Z,5.60
2017-12-25T23:06:10.095Z,6.00
2017-12-25T23:08:40.800Z,5.80
2017-12-25T23:11:12.141Z,7.70
2017-12-25T23:13:43.427Z,5.67
2017-12-25T23:16:14.129Z,6.60
2017-12-25T23:18:46.192Z,5.93
2017-12-25T23:21:17.596Z,10.23
2017-12-25T23:23:48.801Z,6.77
2017-12-25T23:26:20.033Z,9.57
2017-12-25T23:28:51.277Z,8.23
2017-12-25T23:31:23.137Z,6.20
2017-12-25T23:33:54.373Z,7.73
2017-12-25T23:39:00.499Z,5.63
2017-12-25T23:41:30.765Z,6.27
2017-12-25T23:44:01.181Z,7.07
2017-12-25T23:46:32.668Z,9.70
2017-12-25T23:49:04.614Z,8.13
2017-12-25T23:51:35.175Z,6.43
2017-12-25T23:54:06.638Z,8.40
2017-12-25T23:56:37.892Z,9.10
2017-12-25T23:59:08.373Z,7.53
